sensor_id;sensor_type;location;lat;lon;timestamp;pressure;altitude;pressure_sealevel;temperature;humidity
60719;BME280;46567;51.660;5.824;2023-08-20T00:02:11;130380.0;;;190.6;100.0
60719;BME280;46567;51.660;5.824;2023-08-20T00:07:11;130370.0;;;190.6;100.0
60719;BME280;46567;51.660;5.824;2023-08-20T00:12:11;130360.0;;;190.6;100.0
60719;BME280;46567;51.660;5.824;2023-08-20T00:17:11;130390.0;;;190.6;100.0
60719;BME280;46567;51.660;5.824;2023-08-20T00:22:11;130390.0;;;190.6;100.0
60719;BME280;46567;51.660;5.824;2023-08-20T00:27:11;130400.0;;;190.6;100.0
60719;BME280;46567;51.660;5.824;2023-08-20T00:32:12;130400.0;;;190.6;100.0
60719;BME280;46567;51.660;5.824;2023-08-20T00:37:11;130430.0;;;190.6;100.0
60719;BME280;46567;51.660;5.824;2023-08-20T00:42:11;130430.0;;;190.6;100.0
60719;BME280;46567;51.660;5.824;2023-08-20T00:47:12;130410.0;;;190.6;100.0
60719;BME280;46567;51.660;5.824;2023-08-20T00:52:12;130420.0;;;190.6;100.0
60719;BME280;46567;51.660;5.824;2023-08-20T00:57:13;130430.0;;;190.6;100.0
60719;BME280;46567;51.660;5.824;2023-08-20T01:02:11;130450.0;;;190.6;100.0
60719;BME280;46567;51.660;5.824;2023-08-20T01:08:09;130450.0;;;190.6;100.0
60719;BME280;46567;51.660;5.824;2023-08-20T01:12:22;130470.0;;;190.6;100.0
60719;BME280;46567;51.660;5.824;2023-08-20T01:17:11;130490.0;;;190.6;100.0
60719;BME280;46567;51.660;5.824;2023-08-20T01:23:10;130490.0;;;190.6;100.0
60719;BME280;46567;51.660;5.824;2023-08-20T01:28:31;130480.0;;;190.6;100.0
60719;BME280;46567;51.660;5.824;2023-08-20T01:32:11;130470.0;;;190.6;100.0
60719;BME280;46567;51.660;5.824;2023-08-20T01:37:11;130460.0;;;190.6;100.0
60719;BME280;46567;51.660;5.824;2023-08-20T01:42:11;130460.0;;;190.6;100.0
60719;BME280;46567;51.660;5.824;2023-08-20T01:47:11;130430.0;;;190.6;100.0
60719;BME280;46567;51.660;5.824;2023-08-20T01:52:11;130420.0;;;190.6;100.0
60719;BME280;46567;51.660;5.824;2023-08-20T01:57:11;130400.0;;;190.6;100.0
60719;BME280;46567;51.660;5.824;2023-08-20T02:02:11;130370.0;;;190.6;100.0
60719;BME280;46567;51.660;5.824;2023-08-20T02:07:11;130370.0;;;190.6;100.0
60719;BME280;46567;51.660;5.824;2023-08-20T02:12:11;130340.0;;;190.6;100.0
60719;BME280;46567;51.660;5.824;2023-08-20T02:17:11;130340.0;;;190.6;100.0
60719;BME280;46567;51.660;5.824;2023-08-20T02:22:11;130360.0;;;190.6;100.0
60719;BME280;46567;51.660;5.824;2023-08-20T02:27:11;130350.0;;;190.6;100.0
60719;BME280;46567;51.660;5.824;2023-08-20T02:32:11;130330.0;;;190.6;100.0
60719;BME280;46567;51.660;5.824;2023-08-20T02:37:11;130320.0;;;190.6;100.0
60719;BME280;46567;51.660;5.824;2023-08-20T02:42:11;130330.0;;;190.6;100.0
60719;BME280;46567;51.660;5.824;2023-08-20T02:47:11;130330.0;;;190.6;100.0
60719;BME280;46567;51.660;5.824;2023-08-20T02:52:11;130340.0;;;190.6;100.0
60719;BME280;46567;51.660;5.824;2023-08-20T02:57:11;130330.0;;;190.6;100.0
60719;BME280;46567;51.660;5.824;2023-08-20T03:02:11;130340.0;;;190.6;100.0
60719;BME280;46567;51.660;5.824;2023-08-20T03:07:11;130340.0;;;190.6;100.0
60719;BME280;46567;51.660;5.824;2023-08-20T03:12:11;130340.0;;;190.6;100.0
60719;BME280;46567;51.660;5.824;2023-08-20T03:17:11;130350.0;;;190.6;100.0
60719;BME280;46567;51.660;5.824;2023-08-20T03:22:11;130360.0;;;190.6;100.0
60719;BME280;46567;51.660;5.824;2023-08-20T03:27:11;130390.0;;;190.6;100.0
60719;BME280;46567;51.660;5.824;2023-08-20T03:32:11;130400.0;;;190.6;100.0
60719;BME280;46567;51.660;5.824;2023-08-20T03:37:11;130430.0;;;190.6;100.0
60719;BME280;46567;51.660;5.824;2023-08-20T03:42:11;130440.0;;;190.6;100.0
60719;BME280;46567;51.660;5.824;2023-08-20T03:47:11;130460.0;;;190.6;100.0
60719;BME280;46567;51.660;5.824;2023-08-20T03:52:11;130480.0;;;190.6;100.0
60719;BME280;46567;51.660;5.824;2023-08-20T03:57:11;130500.0;;;190.6;100.0
60719;BME280;46567;51.660;5.824;2023-08-20T04:02:11;130510.0;;;190.6;100.0
60719;BME280;46567;51.660;5.824;2023-08-20T04:07:11;130530.0;;;190.6;100.0
60719;BME280;46567;51.660;5.824;2023-08-20T04:12:11;130540.0;;;190.6;100.0
60719;BME280;46567;51.660;5.824;2023-08-20T04:17:11;130550.0;;;190.6;100.0
60719;BME280;46567;51.660;5.824;2023-08-20T04:22:11;130560.0;;;190.6;100.0
60719;BME280;46567;51.660;5.824;2023-08-20T04:27:11;130580.0;;;190.6;100.0
60719;BME280;46567;51.660;5.824;2023-08-20T04:32:11;130620.0;;;190.6;100.0
60719;BME280;46567;51.660;5.824;2023-08-20T04:37:11;130630.0;;;190.6;100.0
60719;BME280;46567;51.660;5.824;2023-08-20T04:42:11;130640.0;;;190.6;100.0
60719;BME280;46567;51.660;5.824;2023-08-20T04:47:11;130650.0;;;190.6;100.0
60719;BME280;46567;51.660;5.824;2023-08-20T04:52:11;130670.0;;;190.6;100.0
60719;BME280;46567;51.660;5.824;2023-08-20T04:57:11;130690.0;;;190.6;100.0
60719;BME280;46567;51.660;5.824;2023-08-20T05:02:11;130700.0;;;190.6;100.0
60719;BME280;46567;51.660;5.824;2023-08-20T05:07:11;130720.0;;;190.6;100.0
60719;BME280;46567;51.660;5.824;2023-08-20T05:12:11;130720.0;;;190.6;100.0
60719;BME280;46567;51.660;5.824;2023-08-20T05:17:11;130700.0;;;190.6;100.0
60719;BME280;46567;51.660;5.824;2023-08-20T05:22:11;130690.0;;;190.6;100.0
60719;BME280;46567;51.660;5.824;2023-08-20T05:27:13;130680.0;;;190.6;100.0
60719;BME280;46567;51.660;5.824;2023-08-20T05:32:11;130660.0;;;190.6;100.0
60719;BME280;46567;51.660;5.824;2023-08-20T05:37:11;130650.0;;;190.6;100.0
60719;BME280;46567;51.660;5.824;2023-08-20T05:42:11;130650.0;;;190.6;100.0
60719;BME280;46567;51.660;5.824;2023-08-20T05:47:11;130630.0;;;190.6;100.0
60719;BME280;46567;51.660;5.824;2023-08-20T05:52:11;130630.0;;;190.6;100.0
60719;BME280;46567;51.660;5.824;2023-08-20T05:57:11;130600.0;;;190.6;100.0
60719;BME280;46567;51.660;5.824;2023-08-20T06:02:15;130570.0;;;190.6;100.0
60719;BME280;46567;51.660;5.824;2023-08-20T06:07:11;130550.0;;;190.6;100.0
60719;BME280;46567;51.660;5.824;2023-08-20T06:12:11;130520.0;;;190.6;100.0
60719;BME280;46567;51.660;5.824;2023-08-20T06:17:11;130490.0;;;190.6;100.0
60719;BME280;46567;51.660;5.824;2023-08-20T06:22:11;130460.0;;;190.6;100.0
60719;BME280;46567;51.660;5.824;2023-08-20T06:27:11;130410.0;;;190.6;100.0
60719;BME280;46567;51.660;5.824;2023-08-20T06:32:11;130370.0;;;190.6;100.0
60719;BME280;46567;51.660;5.824;2023-08-20T06:37:11;130320.0;;;190.6;100.0
60719;BME280;46567;51.660;5.824;2023-08-20T06:42:11;130270.0;;;190.6;100.0
60719;BME280;46567;51.660;5.824;2023-08-20T06:47:11;130210.0;;;190.6;100.0
60719;BME280;46567;51.660;5.824;2023-08-20T06:52:11;130160.0;;;190.6;100.0
60719;BME280;46567;51.660;5.824;2023-08-20T06:57:11;130110.0;;;190.6;100.0
60719;BME280;46567;51.660;5.824;2023-08-20T07:02:11;130050.0;;;190.6;100.0
60719;BME280;46567;51.660;5.824;2023-08-20T07:07:11;129980.0;;;190.6;100.0
60719;BME280;46567;51.660;5.824;2023-08-20T07:12:11;129910.0;;;190.6;98.0
60719;BME280;46567;51.660;5.824;2023-08-20T07:17:11;129850.0;;;190.6;96.5
60719;BME280;46567;51.660;5.824;2023-08-20T07:22:11;129780.0;;;190.6;94.0
60719;BME280;46567;51.660;5.824;2023-08-20T07:27:11;129720.0;;;190.6;94.0
60719;BME280;46567;51.660;5.824;2023-08-20T07:32:11;129640.0;;;190.6;91.0
60719;BME280;46567;51.660;5.824;2023-08-20T07:37:11;129580.0;;;190.6;90.0
60719;BME280;46567;51.660;5.824;2023-08-20T07:42:11;129500.0;;;190.6;86.5
60719;BME280;46567;51.660;5.824;2023-08-20T07:47:11;129460.0;;;190.6;85.0
60719;BME280;46567;51.660;5.824;2023-08-20T07:52:11;129410.0;;;190.6;83.5
60719;BME280;46567;51.660;5.824;2023-08-20T07:57:11;129360.0;;;190.6;82.0
60719;BME280;46567;51.660;5.824;2023-08-20T08:02:11;129340.0;;;190.6;80.0
60719;BME280;46567;51.660;5.824;2023-08-20T08:07:11;129290.0;;;190.6;80.0
60719;BME280;46567;51.660;5.824;2023-08-20T08:12:11;129260.0;;;190.6;80.5
60719;BME280;46567;51.660;5.824;2023-08-20T08:17:11;129240.0;;;190.6;79.0
60719;BME280;46567;51.660;5.824;2023-08-20T08:22:11;129200.0;;;190.6;76.5
60719;BME280;46567;51.660;5.824;2023-08-20T08:27:11;129170.0;;;190.6;75.5
60719;BME280;46567;51.660;5.824;2023-08-20T08:32:11;129120.0;;;190.6;74.0
60719;BME280;46567;51.660;5.824;2023-08-20T08:37:11;129110.0;;;190.6;72.5
60719;BME280;46567;51.660;5.824;2023-08-20T08:42:14;129120.0;;;190.6;72.0
60719;BME280;46567;51.660;5.824;2023-08-20T08:47:11;129090.0;;;190.6;72.0
60719;BME280;46567;51.660;5.824;2023-08-20T08:52:11;129060.0;;;190.6;70.0
60719;BME280;46567;51.660;5.824;2023-08-20T08:57:11;129030.0;;;190.6;70.0
60719;BME280;46567;51.660;5.824;2023-08-20T09:02:12;129000.0;;;190.6;69.5
60719;BME280;46567;51.660;5.824;2023-08-20T09:07:13;128980.0;;;190.6;69.0
60719;BME280;46567;51.660;5.824;2023-08-20T09:12:13;128950.0;;;190.6;70.0
60719;BME280;46567;51.660;5.824;2023-08-20T09:17:11;128940.0;;;190.6;69.5
60719;BME280;46567;51.660;5.824;2023-08-20T09:22:11;128930.0;;;190.6;68.0
60719;BME280;46567;51.660;5.824;2023-08-20T09:27:12;128900.0;;;190.6;67.0
60719;BME280;46567;51.660;5.824;2023-08-20T09:32:15;128890.0;;;190.6;64.5
60719;BME280;46567;51.660;5.824;2023-08-20T09:37:12;128890.0;;;190.6;64.5
60719;BME280;46567;51.660;5.824;2023-08-20T09:42:13;128890.0;;;190.6;62.5
60719;BME280;46567;51.660;5.824;2023-08-20T09:47:13;128880.0;;;190.6;63.5
60719;BME280;46567;51.660;5.824;2023-08-20T09:52:12;128830.0;;;190.6;62.0
60719;BME280;46567;51.660;5.824;2023-08-20T09:57:32;128800.0;;;190.6;60.5
60719;BME280;46567;51.660;5.824;2023-08-20T10:02:13;128760.0;;;190.6;58.5
60719;BME280;46567;51.660;5.824;2023-08-20T10:07:12;128730.0;;;190.6;59.0
60719;BME280;46567;51.660;5.824;2023-08-20T10:12:11;128710.0;;;190.6;57.0
60719;BME280;46567;51.660;5.824;2023-08-20T10:17:12;128710.0;;;190.6;56.5
60719;BME280;46567;51.660;5.824;2023-08-20T10:22:11;128700.0;;;190.6;53.5
60719;BME280;46567;51.660;5.824;2023-08-20T10:27:11;128690.0;;;190.6;53.0
60719;BME280;46567;51.660;5.824;2023-08-20T10:32:12;128660.0;;;190.6;53.0
60719;BME280;46567;51.660;5.824;2023-08-20T10:37:12;128650.0;;;190.6;51.0
60719;BME280;46567;51.660;5.824;2023-08-20T10:42:23;128640.0;;;190.6;52.5
60719;BME280;46567;51.660;5.824;2023-08-20T10:47:16;128610.0;;;190.6;50.5
60719;BME280;46567;51.660;5.824;2023-08-20T10:52:12;128570.0;;;190.6;51.5
60719;BME280;46567;51.660;5.824;2023-08-20T10:57:11;128560.0;;;190.6;52.0
60719;BME280;46567;51.660;5.824;2023-08-20T11:02:14;128530.0;;;190.6;48.0
60719;BME280;46567;51.660;5.824;2023-08-20T11:07:17;128540.0;;;190.6;46.0
60719;BME280;46567;51.660;5.824;2023-08-20T11:12:14;128540.0;;;190.6;47.5
60719;BME280;46567;51.660;5.824;2023-08-20T11:17:11;128540.0;;;190.6;46.5
60719;BME280;46567;51.660;5.824;2023-08-20T11:22:11;128530.0;;;190.6;44.5
60719;BME280;46567;51.660;5.824;2023-08-20T11:27:11;128510.0;;;190.6;45.0
60719;BME280;46567;51.660;5.824;2023-08-20T11:32:11;128480.0;;;190.6;43.0
60719;BME280;46567;51.660;5.824;2023-08-20T11:37:11;128470.0;;;190.6;43.5
60719;BME280;46567;51.660;5.824;2023-08-20T11:42:11;128450.0;;;190.6;44.5
60719;BME280;46567;51.660;5.824;2023-08-20T11:47:13;128440.0;;;190.6;42.5
60719;BME280;46567;51.660;5.824;2023-08-20T11:52:11;128430.0;;;190.6;43.5
60719;BME280;46567;51.660;5.824;2023-08-20T11:57:11;128420.0;;;190.6;44.0
60719;BME280;46567;51.660;5.824;2023-08-20T12:02:11;128380.0;;;190.6;43.0
60719;BME280;46567;51.660;5.824;2023-08-20T12:07:14;128380.0;;;190.6;42.5
60719;BME280;46567;51.660;5.824;2023-08-20T12:12:11;128390.0;;;190.6;40.0
60719;BME280;46567;51.660;5.824;2023-08-20T12:17:11;128380.0;;;190.6;42.5
60719;BME280;46567;51.660;5.824;2023-08-20T12:22:11;128350.0;;;190.6;41.5
60719;BME280;46567;51.660;5.824;2023-08-20T12:27:11;128300.0;;;190.6;41.5
60719;BME280;46567;51.660;5.824;2023-08-20T12:32:11;128270.0;;;190.6;42.0
60719;BME280;46567;51.660;5.824;2023-08-20T12:37:11;128240.0;;;190.6;41.5
60719;BME280;46567;51.660;5.824;2023-08-20T12:42:11;128220.0;;;190.6;40.0
60719;BME280;46567;51.660;5.824;2023-08-20T12:47:11;128210.0;;;190.6;39.5
60719;BME280;46567;51.660;5.824;2023-08-20T12:52:11;128220.0;;;190.6;39.5
60719;BME280;46567;51.660;5.824;2023-08-20T12:57:11;128230.0;;;190.6;38.5
60719;BME280;46567;51.660;5.824;2023-08-20T13:02:11;128240.0;;;190.6;39.0
60719;BME280;46567;51.660;5.824;2023-08-20T13:07:12;128210.0;;;190.6;40.0
60719;BME280;46567;51.660;5.824;2023-08-20T13:12:11;128180.0;;;190.6;39.5
60719;BME280;46567;51.660;5.824;2023-08-20T13:17:11;128180.0;;;190.6;38.5
60719;BME280;46567;51.660;5.824;2023-08-20T13:22:11;128160.0;;;190.6;39.0
60719;BME280;46567;51.660;5.824;2023-08-20T13:27:11;128150.0;;;190.6;37.5
60719;BME280;46567;51.660;5.824;2023-08-20T13:32:11;128130.0;;;190.6;38.0
60719;BME280;46567;51.660;5.824;2023-08-20T13:37:11;128100.0;;;190.6;38.5
60719;BME280;46567;51.660;5.824;2023-08-20T13:42:11;128040.0;;;190.6;38.5
60719;BME280;46567;51.660;5.824;2023-08-20T13:47:11;127990.0;;;190.6;36.0
60719;BME280;46567;51.660;5.824;2023-08-20T13:52:11;128000.0;;;190.6;35.5
60719;BME280;46567;51.660;5.824;2023-08-20T13:57:11;127980.0;;;190.6;35.5
60719;BME280;46567;51.660;5.824;2023-08-20T14:02:11;127980.0;;;190.6;35.5
60719;BME280;46567;51.660;5.824;2023-08-20T14:07:11;127980.0;;;190.6;36.0
60719;BME280;46567;51.660;5.824;2023-08-20T14:12:11;127980.0;;;190.6;35.5
60719;BME280;46567;51.660;5.824;2023-08-20T14:17:11;127970.0;;;190.6;35.0
60719;BME280;46567;51.660;5.824;2023-08-20T14:22:11;127970.0;;;190.6;34.5
60719;BME280;46567;51.660;5.824;2023-08-20T14:27:11;127980.0;;;190.6;35.0
60719;BME280;46567;51.660;5.824;2023-08-20T14:32:11;127980.0;;;190.6;34.5
60719;BME280;46567;51.660;5.824;2023-08-20T14:37:11;128030.0;;;190.6;35.0
60719;BME280;46567;51.660;5.824;2023-08-20T14:42:11;128020.0;;;190.6;36.5
60719;BME280;46567;51.660;5.824;2023-08-20T14:47:11;128030.0;;;190.6;34.5
60719;BME280;46567;51.660;5.824;2023-08-20T14:52:11;128080.0;;;190.6;34.5
60719;BME280;46567;51.660;5.824;2023-08-20T14:57:11;128070.0;;;190.6;35.5
60719;BME280;46567;51.660;5.824;2023-08-20T15:02:11;127990.0;;;190.6;36.0
60719;BME280;46567;51.660;5.824;2023-08-20T15:07:11;127960.0;;;190.6;34.0
60719;BME280;46567;51.660;5.824;2023-08-20T15:12:11;127970.0;;;190.6;34.0
60719;BME280;46567;51.660;5.824;2023-08-20T15:17:11;128060.0;;;190.6;33.5
60719;BME280;46567;51.660;5.824;2023-08-20T15:22:13;128160.0;;;190.6;35.0
60719;BME280;46567;51.660;5.824;2023-08-20T15:27:11;128250.0;;;190.6;36.5
60719;BME280;46567;51.660;5.824;2023-08-20T15:32:11;128290.0;;;190.6;38.5
60719;BME280;46567;51.660;5.824;2023-08-20T15:37:11;128340.0;;;190.6;37.5
60719;BME280;46567;51.660;5.824;2023-08-20T15:42:11;128400.0;;;190.6;38.5
60719;BME280;46567;51.660;5.824;2023-08-20T15:47:11;128450.0;;;190.6;39.0
60719;BME280;46567;51.660;5.824;2023-08-20T15:52:11;128490.0;;;190.6;41.0
60719;BME280;46567;51.660;5.824;2023-08-20T15:57:11;128500.0;;;190.6;41.5
60719;BME280;46567;51.660;5.824;2023-08-20T16:02:11;128470.0;;;190.6;41.5
60719;BME280;46567;51.660;5.824;2023-08-20T16:07:11;128450.0;;;190.6;41.5
60719;BME280;46567;51.660;5.824;2023-08-20T16:12:11;128380.0;;;190.6;41.5
60719;BME280;46567;51.660;5.824;2023-08-20T16:17:11;128310.0;;;190.6;41.0
60719;BME280;46567;51.660;5.824;2023-08-20T16:22:11;128220.0;;;190.6;39.5
60719;BME280;46567;51.660;5.824;2023-08-20T16:27:11;128180.0;;;190.6;38.5
60719;BME280;46567;51.660;5.824;2023-08-20T16:32:11;128180.0;;;190.6;36.5
60719;BME280;46567;51.660;5.824;2023-08-20T16:37:11;128150.0;;;190.6;36.5
60719;BME280;46567;51.660;5.824;2023-08-20T16:42:11;128140.0;;;190.6;36.0
60719;BME280;46567;51.660;5.824;2023-08-20T16:47:11;128100.0;;;190.6;36.5
60719;BME280;46567;51.660;5.824;2023-08-20T16:52:11;128070.0;;;190.6;36.0
60719;BME280;46567;51.660;5.824;2023-08-20T16:57:11;128090.0;;;190.6;36.0
60719;BME280;46567;51.660;5.824;2023-08-20T17:02:11;128170.0;;;190.6;37.0
60719;BME280;46567;51.660;5.824;2023-08-20T17:07:12;128240.0;;;190.6;38.5
60719;BME280;46567;51.660;5.824;2023-08-20T17:12:12;128300.0;;;190.6;39.0
60719;BME280;46567;51.660;5.824;2023-08-20T17:17:11;128340.0;;;190.6;40.0
60719;BME280;46567;51.660;5.824;2023-08-20T17:22:11;128350.0;;;190.6;40.0
60719;BME280;46567;51.660;5.824;2023-08-20T17:27:11;128380.0;;;190.6;40.5
60719;BME280;46567;51.660;5.824;2023-08-20T17:32:12;128420.0;;;190.6;41.5
60719;BME280;46567;51.660;5.824;2023-08-20T17:37:11;128450.0;;;190.6;43.0
60719;BME280;46567;51.660;5.824;2023-08-20T17:42:11;128460.0;;;190.6;42.5
60719;BME280;46567;51.660;5.824;2023-08-20T17:47:11;128460.0;;;190.6;43.0
60719;BME280;46567;51.660;5.824;2023-08-20T17:52:11;128490.0;;;190.6;43.0
60719;BME280;46567;51.660;5.824;2023-08-20T17:57:11;128550.0;;;190.6;44.0
60719;BME280;46567;51.660;5.824;2023-08-20T18:02:11;128600.0;;;190.6;45.0
60719;BME280;46567;51.660;5.824;2023-08-20T18:07:11;128680.0;;;190.6;46.0
60719;BME280;46567;51.660;5.824;2023-08-20T18:12:11;128760.0;;;190.6;47.0
60719;BME280;46567;51.660;5.824;2023-08-20T18:17:11;128840.0;;;190.6;48.0
60719;BME280;46567;51.660;5.824;2023-08-20T18:22:11;128920.0;;;190.6;49.0
60719;BME280;46567;51.660;5.824;2023-08-20T18:27:11;129010.0;;;190.6;50.5
60719;BME280;46567;51.660;5.824;2023-08-20T18:32:11;129080.0;;;190.6;52.5
60719;BME280;46567;51.660;5.824;2023-08-20T18:37:11;129120.0;;;190.6;53.5
60719;BME280;46567;51.660;5.824;2023-08-20T18:42:12;129170.0;;;190.6;54.5
60719;BME280;46567;51.660;5.824;2023-08-20T18:47:11;129200.0;;;190.6;55.0
60719;BME280;46567;51.660;5.824;2023-08-20T18:52:11;129250.0;;;190.6;56.0
60719;BME280;46567;51.660;5.824;2023-08-20T18:57:11;129280.0;;;190.6;57.5
60719;BME280;46567;51.660;5.824;2023-08-20T19:02:11;129300.0;;;190.6;58.0
60719;BME280;46567;51.660;5.824;2023-08-20T19:07:11;129330.0;;;190.6;59.0
60719;BME280;46567;51.660;5.824;2023-08-20T19:12:11;129350.0;;;190.6;59.0
60719;BME280;46567;51.660;5.824;2023-08-20T19:17:11;129370.0;;;190.6;59.0
60719;BME280;46567;51.660;5.824;2023-08-20T19:22:11;129400.0;;;190.6;59.5
60719;BME280;46567;51.660;5.824;2023-08-20T19:27:11;129430.0;;;190.6;60.0
60719;BME280;46567;51.660;5.824;2023-08-20T19:32:11;129460.0;;;190.6;60.5
60719;BME280;46567;51.660;5.824;2023-08-20T19:37:12;129490.0;;;190.6;61.0
60719;BME280;46567;51.660;5.824;2023-08-20T19:42:11;129500.0;;;190.6;62.5
60719;BME280;46567;51.660;5.824;2023-08-20T19:47:11;129530.0;;;190.6;63.0
60719;BME280;46567;51.660;5.824;2023-08-20T19:52:12;129540.0;;;190.6;63.5
60719;BME280;46567;51.660;5.824;2023-08-20T19:57:11;129560.0;;;190.6;64.5
60719;BME280;46567;51.660;5.824;2023-08-20T20:02:11;129590.0;;;190.6;64.5
60719;BME280;46567;51.660;5.824;2023-08-20T20:12:11;129640.0;;;190.6;64.5
60719;BME280;46567;51.660;5.824;2023-08-20T20:17:11;129670.0;;;190.6;65.0
60719;BME280;46567;51.660;5.824;2023-08-20T20:22:11;129680.0;;;190.6;65.5
60719;BME280;46567;51.660;5.824;2023-08-20T20:27:12;129710.0;;;190.6;66.0
60719;BME280;46567;51.660;5.824;2023-08-20T20:32:12;129730.0;;;190.6;65.5
60719;BME280;46567;51.660;5.824;2023-08-20T20:37:11;129740.0;;;190.6;66.0
60719;BME280;46567;51.660;5.824;2023-08-20T20:42:11;129760.0;;;190.6;66.0
60719;BME280;46567;51.660;5.824;2023-08-20T20:47:12;129770.0;;;190.6;66.5
60719;BME280;46567;51.660;5.824;2023-08-20T20:52:11;129800.0;;;190.6;66.5
60719;BME280;46567;51.660;5.824;2023-08-20T20:57:11;129820.0;;;190.6;66.5
60719;BME280;46567;51.660;5.824;2023-08-20T21:02:11;129850.0;;;190.6;67.0
60719;BME280;46567;51.660;5.824;2023-08-20T21:07:12;129850.0;;;190.6;67.0
60719;BME280;46567;51.660;5.824;2023-08-20T21:12:11;129860.0;;;190.6;67.0
60719;BME280;46567;51.660;5.824;2023-08-20T21:17:13;129850.0;;;190.6;67.0
60719;BME280;46567;51.660;5.824;2023-08-20T21:22:13;129890.0;;;190.6;67.5
60719;BME280;46567;51.660;5.824;2023-08-20T21:27:12;129920.0;;;190.6;67.5
60719;BME280;46567;51.660;5.824;2023-08-20T21:32:12;129930.0;;;190.6;67.5
60719;BME280;46567;51.660;5.824;2023-08-20T21:37:12;129940.0;;;190.6;68.0
60719;BME280;46567;51.660;5.824;2023-08-20T21:42:11;129970.0;;;190.6;68.0
60719;BME280;46567;51.660;5.824;2023-08-20T21:47:23;129970.0;;;190.6;68.5
60719;BME280;46567;51.660;5.824;2023-08-20T21:52:11;129970.0;;;190.6;68.5
60719;BME280;46567;51.660;5.824;2023-08-20T21:57:16;129990.0;;;190.6;69.0
60719;BME280;46567;51.660;5.824;2023-08-20T22:02:12;130000.0;;;190.6;70.0
60719;BME280;46567;51.660;5.824;2023-08-20T22:07:12;130000.0;;;190.6;70.0
60719;BME280;46567;51.660;5.824;2023-08-20T22:12:12;130020.0;;;190.6;70.5
60719;BME280;46567;51.660;5.824;2023-08-20T22:17:12;130040.0;;;190.6;70.5
60719;BME280;46567;51.660;5.824;2023-08-20T22:22:12;130050.0;;;190.6;70.5
60719;BME280;46567;51.660;5.824;2023-08-20T22:27:12;130060.0;;;190.6;70.5
60719;BME280;46567;51.660;5.824;2023-08-20T22:32:12;130060.0;;;190.6;71.5
60719;BME280;46567;51.660;5.824;2023-08-20T22:37:12;130070.0;;;190.6;72.0
60719;BME280;46567;51.660;5.824;2023-08-20T22:42:12;130080.0;;;190.6;72.0
60719;BME280;46567;51.660;5.824;2023-08-20T22:47:12;130090.0;;;190.6;72.5
60719;BME280;46567;51.660;5.824;2023-08-20T22:52:12;130090.0;;;190.6;73.0
60719;BME280;46567;51.660;5.824;2023-08-20T22:57:12;130120.0;;;190.6;73.5
60719;BME280;46567;51.660;5.824;2023-08-20T23:02:12;130130.0;;;190.6;74.0
60719;BME280;46567;51.660;5.824;2023-08-20T23:07:13;130140.0;;;190.6;74.5
60719;BME280;46567;51.660;5.824;2023-08-20T23:12:12;130140.0;;;190.6;74.5
60719;BME280;46567;51.660;5.824;2023-08-20T23:17:12;130160.0;;;190.6;75.0
60719;BME280;46567;51.660;5.824;2023-08-20T23:22:12;130160.0;;;190.6;75.5
60719;BME280;46567;51.660;5.824;2023-08-20T23:27:12;130190.0;;;190.6;75.5
60719;BME280;46567;51.660;5.824;2023-08-20T23:32:12;130210.0;;;190.6;76.0
60719;BME280;46567;51.660;5.824;2023-08-20T23:37:12;130240.0;;;190.6;76.5
60719;BME280;46567;51.660;5.824;2023-08-20T23:42:12;130250.0;;;190.6;77.0
60719;BME280;46567;51.660;5.824;2023-08-20T23:47:12;130260.0;;;190.6;77.5
60719;BME280;46567;51.660;5.824;2023-08-20T23:52:12;130250.0;;;190.6;78.0
60719;BME280;46567;51.660;5.824;2023-08-20T23:57:12;130260.0;;;190.6;78.0
